sensor_id;sensor_type;location;lat;lon;timestamp;P1;durP1;ratioP1;P2;durP2;ratioP2
23009;SDS011;11671;49.990;8.028;2023-02-28T00:00:28;5.63;;;1.30;;
23009;SDS011;11671;49.990;8.028;2023-02-28T00:05:20;4.22;;;1.38;;
23009;SDS011;11671;49.990;8.028;2023-02-28T00:07:48;1.55;;;1.20;;
23009;SDS011;11671;49.990;8.028;2023-02-28T00:10:17;4.32;;;1.98;;
23009;SDS011;11671;49.990;8.028;2023-02-28T00:12:46;2.75;;;1.85;;
23009;SDS011;11671;49.990;8.028;2023-02-28T00:15:12;3.15;;;1.40;;
23009;SDS011;11671;49.990;8.028;2023-02-28T00:20:04;5.90;;;1.95;;
23009;SDS011;11671;49.990;8.028;2023-02-28T00:22:38;4.70;;;1.73;;
23009;SDS011;11671;49.990;8.028;2023-02-28T00:25:05;5.85;;;1.95;;
23009;SDS011;11671;49.990;8.028;2023-02-28T00:27:32;6.60;;;1.73;;
23009;SDS011;11671;49.990;8.028;2023-02-28T00:29:58;2.95;;;1.63;;
23009;SDS011;11671;49.990;8.028;2023-02-28T00:34:49;3.67;;;2.85;;
23009;SDS011;11671;49.990;8.028;2023-02-28T00:37:15;3.38;;;1.83;;
23009;SDS011;11671;49.990;8.028;2023-02-28T00:39:41;2.33;;;1.25;;
23009;SDS011;11671;49.990;8.028;2023-02-28T00:42:06;3.33;;;1.67;;
23009;SDS011;11671;49.990;8.028;2023-02-28T00:44:32;3.55;;;1.85;;
23009;SDS011;11671;49.990;8.028;2023-02-28T00:49:24;3.03;;;1.80;;
23009;SDS011;11671;49.990;8.028;2023-02-28T00:51:51;2.63;;;1.50;;
23009;SDS011;11671;49.990;8.028;2023-02-28T00:54:17;4.10;;;1.85;;
23009;SDS011;11671;49.990;8.028;2023-02-28T00:59:08;3.40;;;1.98;;
23009;SDS011;11671;49.990;8.028;2023-02-28T01:01:34;3.28;;;1.80;;
23009;SDS011;11671;49.990;8.028;2023-02-28T01:04:00;4.20;;;2.08;;
23009;SDS011;11671;49.990;8.028;2023-02-28T01:06:25;3.28;;;1.85;;
23009;SDS011;11671;49.990;8.028;2023-02-28T01:08:51;4.53;;;1.92;;
23009;SDS011;11671;49.990;8.028;2023-02-28T01:11:17;3.65;;;1.73;;
23009;SDS011;11671;49.990;8.028;2023-02-28T01:13:43;5.00;;;2.10;;
23009;SDS011;11671;49.990;8.028;2023-02-28T01:16:10;2.72;;;1.65;;
23009;SDS011;11671;49.990;8.028;2023-02-28T01:18:37;3.97;;;1.77;;
23009;SDS011;11671;49.990;8.028;2023-02-28T01:21:06;5.30;;;1.90;;
23009;SDS011;11671;49.990;8.028;2023-02-28T01:23:35;4.07;;;1.95;;
23009;SDS011;11671;49.990;8.028;2023-02-28T01:28:45;4.88;;;1.98;;
23009;SDS011;11671;49.990;8.028;2023-02-28T01:33:37;3.55;;;1.77;;
23009;SDS011;11671;49.990;8.028;2023-02-28T01:36:36;5.20;;;2.08;;
23009;SDS011;11671;49.990;8.028;2023-02-28T01:38:55;4.53;;;2.05;;
23009;SDS011;11671;49.990;8.028;2023-02-28T01:46:51;4.47;;;1.70;;
23009;SDS011;11671;49.990;8.028;2023-02-28T01:51:44;4.38;;;2.42;;
23009;SDS011;11671;49.990;8.028;2023-02-28T01:54:16;3.17;;;1.75;;
23009;SDS011;11671;49.990;8.028;2023-02-28T01:56:47;3.72;;;2.00;;
23009;SDS011;11671;49.990;8.028;2023-02-28T01:59:22;4.22;;;1.98;;
23009;SDS011;11671;49.990;8.028;2023-02-28T02:01:54;3.60;;;1.85;;
23009;SDS011;11671;49.990;8.028;2023-02-28T02:06:48;3.17;;;1.83;;
23009;SDS011;11671;49.990;8.028;2023-02-28T02:09:14;2.70;;;2.03;;
23009;SDS011;11671;49.990;8.028;2023-02-28T02:11:41;4.30;;;2.08;;
23009;SDS011;11671;49.990;8.028;2023-02-28T02:19:42;4.95;;;2.05;;
23009;SDS011;11671;49.990;8.028;2023-02-28T02:22:51;5.72;;;2.58;;
23009;SDS011;11671;49.990;8.028;2023-02-28T02:25:23;3.65;;;2.30;;
23009;SDS011;11671;49.990;8.028;2023-02-28T02:36:19;4.28;;;2.50;;
23009;SDS011;11671;49.990;8.028;2023-02-28T02:39:06;5.43;;;3.03;;
23009;SDS011;11671;49.990;8.028;2023-02-28T02:41:54;6.03;;;2.60;;
23009;SDS011;11671;49.990;8.028;2023-02-28T02:44:30;4.88;;;2.40;;
23009;SDS011;11671;49.990;8.028;2023-02-28T02:47:03;3.47;;;2.28;;
23009;SDS011;11671;49.990;8.028;2023-02-28T02:49:35;3.40;;;2.47;;
23009;SDS011;11671;49.990;8.028;2023-02-28T02:52:04;4.45;;;2.63;;
23009;SDS011;11671;49.990;8.028;2023-02-28T02:54:33;4.57;;;2.65;;
23009;SDS011;11671;49.990;8.028;2023-02-28T02:57:03;3.08;;;1.92;;
23009;SDS011;11671;49.990;8.028;2023-02-28T02:59:33;6.50;;;2.53;;
23009;SDS011;11671;49.990;8.028;2023-02-28T03:02:03;6.90;;;3.00;;
23009;SDS011;11671;49.990;8.028;2023-02-28T03:04:32;4.38;;;2.42;;
23009;SDS011;11671;49.990;8.028;2023-02-28T03:07:03;5.32;;;2.92;;
23009;SDS011;11671;49.990;8.028;2023-02-28T03:09:28;3.95;;;3.15;;
23009;SDS011;11671;49.990;8.028;2023-02-28T03:11:58;6.10;;;2.80;;
23009;SDS011;11671;49.990;8.028;2023-02-28T03:14:25;4.63;;;2.72;;
23009;SDS011;11671;49.990;8.028;2023-02-28T03:19:47;5.00;;;2.65;;
23009;SDS011;11671;49.990;8.028;2023-02-28T03:30:59;5.13;;;3.22;;
23009;SDS011;11671;49.990;8.028;2023-02-28T03:33:44;3.67;;;2.25;;
23009;SDS011;11671;49.990;8.028;2023-02-28T03:36:20;6.75;;;2.88;;
23009;SDS011;11671;49.990;8.028;2023-02-28T03:38:59;6.45;;;3.13;;
23009;SDS011;11671;49.990;8.028;2023-02-28T03:41:36;4.18;;;2.60;;
23009;SDS011;11671;49.990;8.028;2023-02-28T03:52:18;4.68;;;2.30;;
23009;SDS011;11671;49.990;8.028;2023-02-28T03:54:48;3.55;;;2.45;;
23009;SDS011;11671;49.990;8.028;2023-02-28T04:00:17;4.85;;;2.65;;
23009;SDS011;11671;49.990;8.028;2023-02-28T04:02:45;3.17;;;2.10;;
23009;SDS011;11671;49.990;8.028;2023-02-28T04:05:17;2.28;;;1.73;;
23009;SDS011;11671;49.990;8.028;2023-02-28T04:07:44;3.35;;;1.75;;
23009;SDS011;11671;49.990;8.028;2023-02-28T04:10:10;3.08;;;2.22;;
23009;SDS011;11671;49.990;8.028;2023-02-28T04:12:37;5.78;;;1.70;;
23009;SDS011;11671;49.990;8.028;2023-02-28T04:15:03;8.45;;;2.25;;
23009;SDS011;11671;49.990;8.028;2023-02-28T04:17:29;3.78;;;1.67;;
23009;SDS011;11671;49.990;8.028;2023-02-28T04:19:55;3.25;;;1.88;;
23009;SDS011;11671;49.990;8.028;2023-02-28T04:22:22;5.38;;;2.15;;
23009;SDS011;11671;49.990;8.028;2023-02-28T04:24:50;5.18;;;1.90;;
23009;SDS011;11671;49.990;8.028;2023-02-28T04:27:16;3.28;;;1.50;;
23009;SDS011;11671;49.990;8.028;2023-02-28T04:29:41;4.35;;;1.73;;
23009;SDS011;11671;49.990;8.028;2023-02-28T04:32:09;4.18;;;1.90;;
23009;SDS011;11671;49.990;8.028;2023-02-28T04:34:35;3.08;;;1.77;;
23009;SDS011;11671;49.990;8.028;2023-02-28T04:37:01;2.70;;;1.40;;
23009;SDS011;11671;49.990;8.028;2023-02-28T04:39:28;2.53;;;1.70;;
23009;SDS011;11671;49.990;8.028;2023-02-28T04:41:54;4.97;;;2.00;;
23009;SDS011;11671;49.990;8.028;2023-02-28T04:44:21;3.15;;;2.20;;
23009;SDS011;11671;49.990;8.028;2023-02-28T04:46:47;3.85;;;2.33;;
23009;SDS011;11671;49.990;8.028;2023-02-28T04:49:14;3.08;;;1.83;;
23009;SDS011;11671;49.990;8.028;2023-02-28T04:51:40;6.25;;;2.72;;
23009;SDS011;11671;49.990;8.028;2023-02-28T04:54:06;3.60;;;2.25;;
23009;SDS011;11671;49.990;8.028;2023-02-28T04:56:32;4.68;;;2.30;;
23009;SDS011;11671;49.990;8.028;2023-02-28T04:58:58;4.53;;;2.60;;
23009;SDS011;11671;49.990;8.028;2023-02-28T05:03:54;6.70;;;3.00;;
23009;SDS011;11671;49.990;8.028;2023-02-28T05:06:23;5.05;;;2.60;;
23009;SDS011;11671;49.990;8.028;2023-02-28T05:08:50;3.42;;;2.05;;
23009;SDS011;11671;49.990;8.028;2023-02-28T05:11:18;5.60;;;2.55;;
23009;SDS011;11671;49.990;8.028;2023-02-28T05:13:52;2.80;;;2.00;;
23009;SDS011;11671;49.990;8.028;2023-02-28T05:16:19;3.22;;;1.80;;
23009;SDS011;11671;49.990;8.028;2023-02-28T05:18:44;3.10;;;1.98;;
23009;SDS011;11671;49.990;8.028;2023-02-28T05:21:48;3.55;;;1.75;;
23009;SDS011;11671;49.990;8.028;2023-02-28T05:24:08;3.28;;;1.83;;
23009;SDS011;11671;49.990;8.028;2023-02-28T05:26:36;5.03;;;1.95;;
23009;SDS011;11671;49.990;8.028;2023-02-28T05:29:04;3.47;;;2.20;;
23009;SDS011;11671;49.990;8.028;2023-02-28T05:31:30;3.28;;;1.88;;
23009;SDS011;11671;49.990;8.028;2023-02-28T05:33:55;2.55;;;1.35;;
23009;SDS011;11671;49.990;8.028;2023-02-28T05:36:21;1.90;;;1.65;;
23009;SDS011;11671;49.990;8.028;2023-02-28T05:38:48;3.83;;;1.85;;
23009;SDS011;11671;49.990;8.028;2023-02-28T05:41:14;3.08;;;1.63;;
23009;SDS011;11671;49.990;8.028;2023-02-28T05:43:40;15.32;;;7.20;;
23009;SDS011;11671;49.990;8.028;2023-02-28T05:46:07;6.05;;;3.30;;
23009;SDS011;11671;49.990;8.028;2023-02-28T05:48:34;4.82;;;1.80;;
23009;SDS011;11671;49.990;8.028;2023-02-28T05:51:01;1.90;;;1.40;;
23009;SDS011;11671;49.990;8.028;2023-02-28T05:53:28;3.38;;;2.03;;
23009;SDS011;11671;49.990;8.028;2023-02-28T05:55:54;3.25;;;1.70;;
23009;SDS011;11671;49.990;8.028;2023-02-28T05:58:20;3.65;;;1.88;;
23009;SDS011;11671;49.990;8.028;2023-02-28T06:00:45;3.83;;;2.30;;
23009;SDS011;11671;49.990;8.028;2023-02-28T06:03:11;3.70;;;1.83;;
23009;SDS011;11671;49.990;8.028;2023-02-28T06:05:37;3.42;;;2.08;;
23009;SDS011;11671;49.990;8.028;2023-02-28T06:08:03;3.67;;;2.08;;
23009;SDS011;11671;49.990;8.028;2023-02-28T06:10:31;3.75;;;2.25;;
23009;SDS011;11671;49.990;8.028;2023-02-28T06:13:01;14.73;;;6.85;;
23009;SDS011;11671;49.990;8.028;2023-02-28T06:15:28;13.65;;;7.63;;
23009;SDS011;11671;49.990;8.028;2023-02-28T06:17:54;10.60;;;5.15;;
23009;SDS011;11671;49.990;8.028;2023-02-28T06:20:23;7.82;;;4.70;;
23009;SDS011;11671;49.990;8.028;2023-02-28T06:22:51;7.30;;;3.83;;
23009;SDS011;11671;49.990;8.028;2023-02-28T06:25:19;6.05;;;3.47;;
23009;SDS011;11671;49.990;8.028;2023-02-28T06:27:44;4.95;;;3.20;;
23009;SDS011;11671;49.990;8.028;2023-02-28T06:30:10;6.70;;;3.78;;
23009;SDS011;11671;49.990;8.028;2023-02-28T06:32:37;7.35;;;4.32;;
23009;SDS011;11671;49.990;8.028;2023-02-28T06:35:03;12.75;;;4.68;;
23009;SDS011;11671;49.990;8.028;2023-02-28T06:37:30;14.07;;;5.28;;
23009;SDS011;11671;49.990;8.028;2023-02-28T06:39:56;9.88;;;4.40;;
23009;SDS011;11671;49.990;8.028;2023-02-28T06:42:22;9.07;;;3.90;;
23009;SDS011;11671;49.990;8.028;2023-02-28T06:44:53;6.65;;;3.25;;
23009;SDS011;11671;49.990;8.028;2023-02-28T06:47:20;5.00;;;2.88;;
23009;SDS011;11671;49.990;8.028;2023-02-28T06:49:45;5.20;;;2.72;;
23009;SDS011;11671;49.990;8.028;2023-02-28T06:52:11;8.05;;;3.13;;
23009;SDS011;11671;49.990;8.028;2023-02-28T06:54:37;7.15;;;3.58;;
23009;SDS011;11671;49.990;8.028;2023-02-28T06:57:02;9.73;;;4.88;;
23009;SDS011;11671;49.990;8.028;2023-02-28T06:59:28;5.25;;;2.15;;
23009;SDS011;11671;49.990;8.028;2023-02-28T07:01:54;6.88;;;2.17;;
23009;SDS011;11671;49.990;8.028;2023-02-28T07:04:20;3.90;;;2.20;;
23009;SDS011;11671;49.990;8.028;2023-02-28T07:06:46;5.13;;;2.70;;
23009;SDS011;11671;49.990;8.028;2023-02-28T07:09:12;4.35;;;2.25;;
23009;SDS011;11671;49.990;8.028;2023-02-28T07:11:38;5.15;;;2.47;;
23009;SDS011;11671;49.990;8.028;2023-02-28T07:14:05;7.30;;;3.50;;
23009;SDS011;11671;49.990;8.028;2023-02-28T07:18:57;3.87;;;2.23;;
23009;SDS011;11671;49.990;8.028;2023-02-28T07:21:22;11.95;;;5.65;;
23009;SDS011;11671;49.990;8.028;2023-02-28T07:23:48;5.63;;;3.00;;
23009;SDS011;11671;49.990;8.028;2023-02-28T07:26:15;4.32;;;2.50;;
23009;SDS011;11671;49.990;8.028;2023-02-28T07:28:42;4.15;;;2.53;;
23009;SDS011;11671;49.990;8.028;2023-02-28T07:31:09;7.25;;;2.90;;
23009;SDS011;11671;49.990;8.028;2023-02-28T07:33:35;3.85;;;2.33;;
23009;SDS011;11671;49.990;8.028;2023-02-28T07:36:03;4.22;;;2.83;;
23009;SDS011;11671;49.990;8.028;2023-02-28T07:38:31;5.40;;;2.65;;
23009;SDS011;11671;49.990;8.028;2023-02-28T07:40:59;3.28;;;2.25;;
23009;SDS011;11671;49.990;8.028;2023-02-28T07:45:50;5.32;;;2.55;;
23009;SDS011;11671;49.990;8.028;2023-02-28T07:48:16;3.60;;;2.13;;
23009;SDS011;11671;49.990;8.028;2023-02-28T07:53:07;4.45;;;2.10;;
23009;SDS011;11671;49.990;8.028;2023-02-28T07:57:58;4.68;;;2.35;;
23009;SDS011;11671;49.990;8.028;2023-02-28T08:00:24;4.28;;;2.38;;
23009;SDS011;11671;49.990;8.028;2023-02-28T08:05:16;5.43;;;1.95;;
23009;SDS011;11671;49.990;8.028;2023-02-28T08:07:43;7.60;;;2.10;;
23009;SDS011;11671;49.990;8.028;2023-02-28T08:12:35;5.78;;;1.75;;
23009;SDS011;11671;49.990;8.028;2023-02-28T08:15:01;5.15;;;2.15;;
23009;SDS011;11671;49.990;8.028;2023-02-28T08:19:52;2.97;;;1.58;;
23009;SDS011;11671;49.990;8.028;2023-02-28T08:24:43;3.45;;;1.65;;
23009;SDS011;11671;49.990;8.028;2023-02-28T08:29:36;2.70;;;2.05;;
23009;SDS011;11671;49.990;8.028;2023-02-28T08:32:03;7.20;;;2.40;;
23009;SDS011;11671;49.990;8.028;2023-02-28T08:34:29;5.78;;;2.17;;
23009;SDS011;11671;49.990;8.028;2023-02-28T08:39:21;4.28;;;2.38;;
23009;SDS011;11671;49.990;8.028;2023-02-28T08:44:12;4.45;;;2.33;;
23009;SDS011;11671;49.990;8.028;2023-02-28T08:49:03;4.05;;;2.40;;
23009;SDS011;11671;49.990;8.028;2023-02-28T08:53:55;8.88;;;4.60;;
23009;SDS011;11671;49.990;8.028;2023-02-28T08:56:24;4.97;;;2.97;;
23009;SDS011;11671;49.990;8.028;2023-02-28T08:58:51;5.22;;;3.25;;
23009;SDS011;11671;49.990;8.028;2023-02-28T09:01:27;7.43;;;3.80;;
23009;SDS011;11671;49.990;8.028;2023-02-28T09:03:53;5.15;;;3.10;;
23009;SDS011;11671;49.990;8.028;2023-02-28T09:06:21;5.68;;;2.92;;
23009;SDS011;11671;49.990;8.028;2023-02-28T09:08:49;5.97;;;3.00;;
23009;SDS011;11671;49.990;8.028;2023-02-28T09:13:41;5.85;;;2.88;;
23009;SDS011;11671;49.990;8.028;2023-02-28T09:18:35;7.53;;;3.30;;
23009;SDS011;11671;49.990;8.028;2023-02-28T09:21:03;6.05;;;3.40;;
23009;SDS011;11671;49.990;8.028;2023-02-28T09:23:32;5.45;;;3.10;;
23009;SDS011;11671;49.990;8.028;2023-02-28T09:28:24;5.50;;;3.28;;
23009;SDS011;11671;49.990;8.028;2023-02-28T09:30:51;4.65;;;3.22;;
23009;SDS011;11671;49.990;8.028;2023-02-28T09:33:18;5.80;;;3.60;;
23009;SDS011;11671;49.990;8.028;2023-02-28T09:35:48;7.70;;;3.38;;
23009;SDS011;11671;49.990;8.028;2023-02-28T09:38:14;7.32;;;3.70;;
23009;SDS011;11671;49.990;8.028;2023-02-28T09:43:20;7.75;;;3.78;;
23009;SDS011;11671;49.990;8.028;2023-02-28T09:45:50;4.70;;;2.97;;
23009;SDS011;11671;49.990;8.028;2023-02-28T09:48:28;7.07;;;3.15;;
23009;SDS011;11671;49.990;8.028;2023-02-28T09:51:05;6.38;;;3.97;;
23009;SDS011;11671;49.990;8.028;2023-02-28T09:53:40;4.53;;;2.92;;
23009;SDS011;11671;49.990;8.028;2023-02-28T10:01:20;7.70;;;3.45;;
23009;SDS011;11671;49.990;8.028;2023-02-28T10:03:58;6.18;;;3.30;;
23009;SDS011;11671;49.990;8.028;2023-02-28T10:06:36;9.23;;;3.88;;
23009;SDS011;11671;49.990;8.028;2023-02-28T10:09:17;6.18;;;3.75;;
23009;SDS011;11671;49.990;8.028;2023-02-28T10:11:56;5.10;;;3.30;;
23009;SDS011;11671;49.990;8.028;2023-02-28T10:14:26;6.43;;;3.47;;
23009;SDS011;11671;49.990;8.028;2023-02-28T10:16:55;9.35;;;3.78;;
23009;SDS011;11671;49.990;8.028;2023-02-28T10:19:34;5.45;;;3.53;;
23009;SDS011;11671;49.990;8.028;2023-02-28T10:22:20;6.18;;;3.75;;
23009;SDS011;11671;49.990;8.028;2023-02-28T10:25:23;7.13;;;4.03;;
23009;SDS011;11671;49.990;8.028;2023-02-28T10:27:54;4.50;;;3.17;;
23009;SDS011;11671;49.990;8.028;2023-02-28T10:30:26;5.20;;;3.58;;
23009;SDS011;11671;49.990;8.028;2023-02-28T10:32:52;7.10;;;4.53;;
23009;SDS011;11671;49.990;8.028;2023-02-28T10:37:50;7.47;;;4.05;;
23009;SDS011;11671;49.990;8.028;2023-02-28T10:49:05;5.78;;;3.03;;
23009;SDS011;11671;49.990;8.028;2023-02-28T10:51:38;4.32;;;2.83;;
23009;SDS011;11671;49.990;8.028;2023-02-28T10:54:05;5.80;;;3.28;;
23009;SDS011;11671;49.990;8.028;2023-02-28T10:59:47;7.22;;;2.97;;
23009;SDS011;11671;49.990;8.028;2023-02-28T11:02:36;7.53;;;3.75;;
23009;SDS011;11671;49.990;8.028;2023-02-28T11:08:10;6.93;;;3.45;;
23009;SDS011;11671;49.990;8.028;2023-02-28T11:10:43;6.78;;;3.88;;
23009;SDS011;11671;49.990;8.028;2023-02-28T11:13:24;5.88;;;3.33;;
23009;SDS011;11671;49.990;8.028;2023-02-28T11:15:57;5.53;;;3.67;;
23009;SDS011;11671;49.990;8.028;2023-02-28T11:18:27;4.63;;;3.10;;
23009;SDS011;11671;49.990;8.028;2023-02-28T11:20:56;6.38;;;3.50;;
23009;SDS011;11671;49.990;8.028;2023-02-28T11:23:25;5.80;;;3.83;;
23009;SDS011;11671;49.990;8.028;2023-02-28T11:25:54;6.00;;;3.25;;
23009;SDS011;11671;49.990;8.028;2023-02-28T11:28:31;6.97;;;3.67;;
23009;SDS011;11671;49.990;8.028;2023-02-28T11:33:44;5.78;;;3.65;;
23009;SDS011;11671;49.990;8.028;2023-02-28T11:36:19;6.15;;;3.92;;
23009;SDS011;11671;49.990;8.028;2023-02-28T11:38:45;8.13;;;4.30;;
23009;SDS011;11671;49.990;8.028;2023-02-28T11:41:16;7.82;;;3.90;;
23009;SDS011;11671;49.990;8.028;2023-02-28T11:46:50;6.95;;;4.63;;
23009;SDS011;11671;49.990;8.028;2023-02-28T11:55:38;6.18;;;3.95;;
23009;SDS011;11671;49.990;8.028;2023-02-28T12:00:48;6.38;;;3.80;;
23009;SDS011;11671;49.990;8.028;2023-02-28T12:06:34;7.80;;;4.22;;
23009;SDS011;11671;49.990;8.028;2023-02-28T12:09:14;5.55;;;3.55;;
23009;SDS011;11671;49.990;8.028;2023-02-28T12:11:56;7.15;;;4.22;;
23009;SDS011;11671;49.990;8.028;2023-02-28T12:17:14;6.68;;;4.30;;
23009;SDS011;11671;49.990;8.028;2023-02-28T12:23:22;9.40;;;4.80;;
23009;SDS011;11671;49.990;8.028;2023-02-28T12:26:26;10.70;;;4.55;;
23009;SDS011;11671;49.990;8.028;2023-02-28T12:34:33;7.55;;;4.40;;
23009;SDS011;11671;49.990;8.028;2023-02-28T12:37:14;6.97;;;5.03;;
23009;SDS011;11671;49.990;8.028;2023-02-28T12:39:54;5.97;;;4.75;;
23009;SDS011;11671;49.990;8.028;2023-02-28T12:42:31;9.75;;;5.65;;
23009;SDS011;11671;49.990;8.028;2023-02-28T12:45:03;8.80;;;3.75;;
23009;SDS011;11671;49.990;8.028;2023-02-28T12:47:35;7.13;;;4.95;;
23009;SDS011;11671;49.990;8.028;2023-02-28T12:50:06;7.40;;;4.82;;
23009;SDS011;11671;49.990;8.028;2023-02-28T12:52:54;7.32;;;4.28;;
23009;SDS011;11671;49.990;8.028;2023-02-28T12:55:45;5.50;;;4.18;;
23009;SDS011;11671;49.990;8.028;2023-02-28T12:58:38;8.00;;;5.13;;
23009;SDS011;11671;49.990;8.028;2023-02-28T13:06:34;5.75;;;4.13;;
23009;SDS011;11671;49.990;8.028;2023-02-28T13:09:19;5.72;;;4.22;;
23009;SDS011;11671;49.990;8.028;2023-02-28T13:11:47;6.90;;;4.85;;
23009;SDS011;11671;49.990;8.028;2023-02-28T13:17:02;6.13;;;4.20;;
23009;SDS011;11671;49.990;8.028;2023-02-28T13:19:29;7.95;;;4.93;;
23009;SDS011;11671;49.990;8.028;2023-02-28T13:22:00;8.98;;;4.88;;
23009;SDS011;11671;49.990;8.028;2023-02-28T13:29:37;7.68;;;5.20;;
23009;SDS011;11671;49.990;8.028;2023-02-28T13:34:39;8.38;;;5.68;;
23009;SDS011;11671;49.990;8.028;2023-02-28T13:39:57;8.25;;;5.07;;
23009;SDS011;11671;49.990;8.028;2023-02-28T13:42:35;8.48;;;5.28;;
23009;SDS011;11671;49.990;8.028;2023-02-28T13:56:07;10.23;;;5.82;;
23009;SDS011;11671;49.990;8.028;2023-02-28T14:04:02;7.63;;;5.20;;
23009;SDS011;11671;49.990;8.028;2023-02-28T14:06:39;8.30;;;5.35;;
23009;SDS011;11671;49.990;8.028;2023-02-28T14:09:21;9.63;;;5.38;;
23009;SDS011;11671;49.990;8.028;2023-02-28T14:11:48;10.82;;;5.25;;
23009;SDS011;11671;49.990;8.028;2023-02-28T14:16:58;9.80;;;5.97;;
23009;SDS011;11671;49.990;8.028;2023-02-28T14:24:47;6.82;;;4.88;;
23009;SDS011;11671;49.990;8.028;2023-02-28T14:38:45;9.90;;;5.13;;
23009;SDS011;11671;49.990;8.028;2023-02-28T14:41:21;8.57;;;4.75;;
23009;SDS011;11671;49.990;8.028;2023-02-28T14:43:53;6.50;;;4.68;;
23009;SDS011;11671;49.990;8.028;2023-02-28T14:46:22;7.88;;;5.30;;
23009;SDS011;11671;49.990;8.028;2023-02-28T14:48:55;7.65;;;5.25;;
23009;SDS011;11671;49.990;8.028;2023-02-28T14:53:49;9.63;;;5.38;;
23009;SDS011;11671;49.990;8.028;2023-02-28T14:56:35;8.25;;;5.22;;
23009;SDS011;11671;49.990;8.028;2023-02-28T14:59:04;8.50;;;5.03;;
23009;SDS011;11671;49.990;8.028;2023-02-28T15:01:30;9.13;;;5.38;;
23009;SDS011;11671;49.990;8.028;2023-02-28T15:04:01;8.57;;;5.30;;
23009;SDS011;11671;49.990;8.028;2023-02-28T15:06:29;7.97;;;5.10;;
23009;SDS011;11671;49.990;8.028;2023-02-28T15:09:09;7.93;;;5.05;;
23009;SDS011;11671;49.990;8.028;2023-02-28T15:11:39;10.35;;;5.45;;
23009;SDS011;11671;49.990;8.028;2023-02-28T15:14:05;8.95;;;5.32;;
23009;SDS011;11671;49.990;8.028;2023-02-28T15:16:32;7.57;;;5.15;;
23009;SDS011;11671;49.990;8.028;2023-02-28T15:19:14;9.35;;;5.65;;
23009;SDS011;11671;49.990;8.028;2023-02-28T15:21:55;7.38;;;5.10;;
23009;SDS011;11671;49.990;8.028;2023-02-28T15:24:46;7.45;;;5.00;;
23009;SDS011;11671;49.990;8.028;2023-02-28T15:27:16;10.38;;;5.40;;
23009;SDS011;11671;49.990;8.028;2023-02-28T15:29:56;7.60;;;5.10;;
23009;SDS011;11671;49.990;8.028;2023-02-28T15:37:46;8.75;;;5.45;;
23009;SDS011;11671;49.990;8.028;2023-02-28T15:43:06;8.40;;;4.63;;
23009;SDS011;11671;49.990;8.028;2023-02-28T15:45:46;9.82;;;5.10;;
23009;SDS011;11671;49.990;8.028;2023-02-28T15:48:16;8.18;;;4.65;;
23009;SDS011;11671;49.990;8.028;2023-02-28T15:50:42;8.75;;;5.63;;
23009;SDS011;11671;49.990;8.028;2023-02-28T15:53:12;12.35;;;5.30;;
23009;SDS011;11671;49.990;8.028;2023-02-28T15:55:52;7.53;;;5.45;;
23009;SDS011;11671;49.990;8.028;2023-02-28T15:58:28;6.85;;;5.22;;
23009;SDS011;11671;49.990;8.028;2023-02-28T16:01:05;10.32;;;6.10;;
23009;SDS011;11671;49.990;8.028;2023-02-28T16:03:45;6.60;;;4.53;;
23009;SDS011;11671;49.990;8.028;2023-02-28T16:06:21;8.77;;;5.60;;
23009;SDS011;11671;49.990;8.028;2023-02-28T16:08:55;13.25;;;6.10;;
23009;SDS011;11671;49.990;8.028;2023-02-28T16:13:47;8.32;;;5.32;;
23009;SDS011;11671;49.990;8.028;2023-02-28T16:16:20;9.38;;;5.63;;
23009;SDS011;11671;49.990;8.028;2023-02-28T16:18:49;10.37;;;5.47;;
23009;SDS011;11671;49.990;8.028;2023-02-28T16:21:15;9.18;;;5.63;;
23009;SDS011;11671;49.990;8.028;2023-02-28T16:26:07;7.97;;;5.20;;
23009;SDS011;11671;49.990;8.028;2023-02-28T16:28:34;8.98;;;5.53;;
23009;SDS011;11671;49.990;8.028;2023-02-28T16:31:03;8.98;;;6.18;;
23009;SDS011;11671;49.990;8.028;2023-02-28T16:33:31;11.55;;;5.28;;
23009;SDS011;11671;49.990;8.028;2023-02-28T16:35:58;8.27;;;5.35;;
23009;SDS011;11671;49.990;8.028;2023-02-28T16:38:24;7.38;;;5.57;;
23009;SDS011;11671;49.990;8.028;2023-02-28T16:40:51;10.25;;;5.35;;
23009;SDS011;11671;49.990;8.028;2023-02-28T16:43:22;10.52;;;5.28;;
23009;SDS011;11671;49.990;8.028;2023-02-28T16:45:51;7.97;;;5.03;;
23009;SDS011;11671;49.990;8.028;2023-02-28T16:48:21;5.82;;;4.20;;
23009;SDS011;11671;49.990;8.028;2023-02-28T16:53:12;8.07;;;4.50;;
23009;SDS011;11671;49.990;8.028;2023-02-28T16:58:04;8.27;;;4.82;;
23009;SDS011;11671;49.990;8.028;2023-02-28T17:02:56;8.60;;;4.50;;
23009;SDS011;11671;49.990;8.028;2023-02-28T17:05:24;9.25;;;4.38;;
23009;SDS011;11671;49.990;8.028;2023-02-28T17:07:50;8.30;;;5.05;;
23009;SDS011;11671;49.990;8.028;2023-02-28T17:12:43;7.78;;;4.63;;
23009;SDS011;11671;49.990;8.028;2023-02-28T17:17:36;7.97;;;5.07;;
23009;SDS011;11671;49.990;8.028;2023-02-28T17:22:29;10.35;;;5.30;;
23009;SDS011;11671;49.990;8.028;2023-02-28T17:27:20;9.75;;;4.97;;
23009;SDS011;11671;49.990;8.028;2023-02-28T17:29:46;10.43;;;5.18;;
23009;SDS011;11671;49.990;8.028;2023-02-28T17:34:38;10.27;;;5.72;;
23009;SDS011;11671;49.990;8.028;2023-02-28T17:39:29;9.50;;;5.35;;
23009;SDS011;11671;49.990;8.028;2023-02-28T17:41:56;7.82;;;5.35;;
23009;SDS011;11671;49.990;8.028;2023-02-28T17:46:48;8.90;;;4.72;;
23009;SDS011;11671;49.990;8.028;2023-02-28T17:49:15;7.60;;;4.88;;
23009;SDS011;11671;49.990;8.028;2023-02-28T17:51:44;8.27;;;5.70;;
23009;SDS011;11671;49.990;8.028;2023-02-28T17:54:11;7.53;;;4.57;;
23009;SDS011;11671;49.990;8.028;2023-02-28T17:56:39;9.40;;;5.05;;
23009;SDS011;11671;49.990;8.028;2023-02-28T17:59:05;9.30;;;5.72;;
23009;SDS011;11671;49.990;8.028;2023-02-28T18:03:56;10.93;;;5.35;;
23009;SDS011;11671;49.990;8.028;2023-02-28T18:08:49;8.52;;;5.20;;
23009;SDS011;11671;49.990;8.028;2023-02-28T18:11:16;10.30;;;5.22;;
23009;SDS011;11671;49.990;8.028;2023-02-28T18:13:50;10.73;;;5.10;;
23009;SDS011;11671;49.990;8.028;2023-02-28T18:16:17;10.45;;;5.40;;
23009;SDS011;11671;49.990;8.028;2023-02-28T18:18:44;8.13;;;5.22;;
23009;SDS011;11671;49.990;8.028;2023-02-28T18:23:39;10.88;;;5.47;;
23009;SDS011;11671;49.990;8.028;2023-02-28T18:26:11;11.57;;;5.75;;
23009;SDS011;11671;49.990;8.028;2023-02-28T18:28:41;13.88;;;5.50;;
23009;SDS011;11671;49.990;8.028;2023-02-28T18:31:08;9.10;;;5.53;;
23009;SDS011;11671;49.990;8.028;2023-02-28T18:33:40;10.07;;;5.18;;
23009;SDS011;11671;49.990;8.028;2023-02-28T18:36:06;8.45;;;5.45;;
23009;SDS011;11671;49.990;8.028;2023-02-28T18:40:59;11.27;;;5.35;;
23009;SDS011;11671;49.990;8.028;2023-02-28T18:43:27;9.73;;;6.25;;
23009;SDS011;11671;49.990;8.028;2023-02-28T18:45:54;10.80;;;5.28;;
23009;SDS011;11671;49.990;8.028;2023-02-28T18:50:49;14.18;;;5.60;;
23009;SDS011;11671;49.990;8.028;2023-02-28T18:53:15;9.05;;;4.90;;
23009;SDS011;11671;49.990;8.028;2023-02-28T18:55:42;10.45;;;5.28;;
23009;SDS011;11671;49.990;8.028;2023-02-28T18:58:08;12.82;;;7.78;;
23009;SDS011;11671;49.990;8.028;2023-02-28T19:00:34;10.90;;;5.68;;
23009;SDS011;11671;49.990;8.028;2023-02-28T19:03:00;11.07;;;6.28;;
23009;SDS011;11671;49.990;8.028;2023-02-28T19:05:27;11.80;;;5.90;;
23009;SDS011;11671;49.990;8.028;2023-02-28T19:07:57;11.30;;;5.95;;
23009;SDS011;11671;49.990;8.028;2023-02-28T19:12:48;12.20;;;5.90;;
23009;SDS011;11671;49.990;8.028;2023-02-28T19:17:40;7.65;;;4.38;;
23009;SDS011;11671;49.990;8.028;2023-02-28T19:20:10;9.73;;;4.85;;
23009;SDS011;11671;49.990;8.028;2023-02-28T19:22:36;9.45;;;5.00;;
23009;SDS011;11671;49.990;8.028;2023-02-28T19:25:05;12.38;;;5.97;;
23009;SDS011;11671;49.990;8.028;2023-02-28T19:27:31;16.70;;;6.55;;
23009;SDS011;11671;49.990;8.028;2023-02-28T19:32:23;10.48;;;5.10;;
23009;SDS011;11671;49.990;8.028;2023-02-28T19:34:50;10.15;;;5.55;;